createdAt,value
2019-06-08T00:01:14.395Z,72.10
2019-06-08T00:03:46.114Z,72.30
2019-06-08T00:06:18.741Z,72.30
2019-06-08T00:08:50.746Z,72.70
2019-06-08T00:11:23.276Z,72.70
2019-06-08T00:13:55.513Z,72.70
2019-06-08T00:16:27.077Z,72.70
2019-06-08T00:18:58.635Z,72.90
2019-06-08T00:21:30.764Z,73.10
2019-06-08T00:24:02.396Z,72.90
2019-06-08T00:26:33.572Z,72.70
2019-06-08T00:29:05.077Z,72.50
2019-06-08T00:31:36.228Z,72.50
2019-06-08T00:34:07.211Z,72.50
2019-06-08T00:36:39.843Z,72.50
2019-06-08T00:39:11.811Z,72.30
2019-06-08T00:41:42.830Z,72.00
2019-06-08T00:44:15.145Z,71.80
2019-06-08T00:46:46.807Z,72.10
2019-06-08T00:49:18.460Z,72.30
2019-06-08T00:51:49.562Z,72.10
2019-06-08T00:54:21.552Z,72.00
2019-06-08T00:56:52.700Z,71.90
2019-06-08T00:59:24.283Z,72.10
2019-06-08T01:01:55.960Z,72.30
2019-06-08T01:04:27.240Z,72.30
2019-06-08T01:06:58.268Z,71.80
2019-06-08T01:09:29.028Z,72.10
2019-06-08T01:11:59.777Z,72.50
2019-06-08T01:14:30.544Z,73.00
2019-06-08T01:17:01.277Z,73.10
2019-06-08T01:19:32.354Z,73.00
2019-06-08T01:22:03.213Z,73.10
2019-06-08T01:24:33.956Z,73.10
2019-06-08T01:27:04.830Z,73.40
2019-06-08T01:29:35.588Z,73.50
2019-06-08T01:32:06.294Z,73.50
2019-06-08T01:34:37.083Z,73.60
2019-06-08T01:37:07.818Z,73.60
2019-06-08T01:39:38.677Z,73.50
2019-06-08T01:42:09.407Z,73.50
2019-06-08T01:44:40.206Z,73.40
2019-06-08T01:47:10.930Z,73.10
2019-06-08T01:49:41.808Z,72.30
2019-06-08T01:52:12.564Z,72.60
2019-06-08T01:54:43.326Z,72.60
2019-06-08T01:57:14.057Z,72.70
2019-06-08T01:59:44.834Z,72.50
2019-06-08T02:02:15.558Z,72.50
2019-06-08T02:04:46.324Z,72.10
2019-06-08T02:07:17.130Z,71.70
2019-06-08T02:09:47.897Z,71.80
2019-06-08T02:12:18.719Z,72.00
2019-06-08T02:14:49.497Z,72.10
2019-06-08T02:17:20.235Z,71.90
2019-06-08T02:19:51.114Z,71.90
2019-06-08T02:22:21.825Z,72.00
2019-06-08T02:24:52.630Z,72.30
2019-06-08T02:27:23.401Z,72.60
2019-06-08T02:29:54.221Z,72.70
2019-06-08T02:32:25.032Z,73.00
2019-06-08T02:34:55.806Z,73.20
2019-06-08T02:37:28.545Z,73.20
2019-06-08T02:40:00.103Z,73.30
2019-06-08T02:42:33.099Z,73.40
2019-06-08T02:45:04.157Z,73.40
2019-06-08T02:47:36.781Z,73.40
2019-06-08T02:50:07.929Z,73.30
2019-06-08T02:52:41.017Z,73.10
2019-06-08T02:55:12.354Z,72.70
2019-06-08T02:57:44.683Z,72.80
2019-06-08T03:00:15.676Z,73.00
2019-06-08T03:02:48.184Z,72.70
2019-06-08T03:05:19.077Z,72.70
2019-06-08T03:07:52.168Z,72.60
2019-06-08T03:10:23.041Z,72.80
2019-06-08T03:12:55.678Z,73.20
2019-06-08T03:15:32.442Z,73.70
2019-06-08T03:18:03.547Z,73.80
2019-06-08T03:20:35.627Z,74.10
2019-06-08T03:23:06.619Z,74.10
2019-06-08T03:25:47.221Z,74.10
2019-06-08T03:28:09.814Z,74.20
2019-06-08T03:30:47.417Z,73.90
2019-06-08T03:33:13.942Z,73.70
2019-06-08T03:35:55.994Z,73.40
2019-06-08T03:38:18.162Z,73.30
2019-06-08T03:40:49.046Z,73.20
2019-06-08T03:43:19.770Z,73.30
2019-06-08T03:45:50.555Z,73.40
2019-06-08T03:48:22.312Z,73.00
2019-06-08T03:50:53.063Z,72.70
2019-06-08T03:53:24.004Z,72.50
2019-06-08T03:55:54.807Z,72.40
2019-06-08T03:58:25.541Z,72.70
2019-06-08T04:00:56.458Z,72.90
2019-06-08T04:03:27.274Z,72.70
2019-06-08T04:05:58.061Z,72.50
2019-06-08T04:08:28.806Z,72.50
2019-06-08T04:10:59.636Z,72.40
2019-06-08T04:13:30.365Z,72.00
2019-06-08T04:16:00.410Z,72.10
2019-06-08T04:18:31.177Z,72.30
2019-06-08T04:21:02.262Z,72.00
2019-06-08T04:23:33.100Z,72.10
2019-06-08T04:26:03.897Z,72.40
2019-06-08T04:28:34.706Z,72.80
2019-06-08T04:31:05.508Z,73.00
2019-06-08T04:33:37.652Z,72.90
2019-06-08T04:36:08.743Z,72.50
2019-06-08T04:38:41.211Z,72.30
2019-06-08T04:41:11.909Z,71.90
2019-06-08T04:43:43.060Z,71.70
2019-06-08T04:46:15.159Z,71.60
2019-06-08T04:48:49.279Z,71.00
2019-06-08T04:51:18.299Z,71.20
2019-06-08T04:53:49.690Z,71.50
2019-06-08T04:56:21.876Z,71.30
2019-06-08T04:58:52.614Z,71.10
2019-06-08T05:01:23.413Z,71.10
2019-06-08T05:03:54.173Z,71.30
2019-06-08T05:06:25.071Z,71.10
2019-06-08T05:08:55.807Z,71.10
2019-06-08T05:11:26.598Z,71.20
2019-06-08T05:13:57.393Z,71.00
2019-06-08T05:16:28.217Z,70.90
2019-06-08T05:18:58.969Z,70.80
2019-06-08T05:21:29.804Z,69.90
2019-06-08T05:24:00.587Z,69.70
2019-06-08T05:26:31.366Z,69.80
2019-06-08T05:29:02.163Z,69.50
2019-06-08T05:31:32.936Z,69.70
2019-06-08T05:34:03.711Z,69.80
2019-06-08T05:36:34.593Z,69.60
2019-06-08T05:39:06.870Z,69.50
2019-06-08T05:41:37.821Z,69.00
2019-06-08T05:44:08.583Z,68.70
2019-06-08T05:46:39.647Z,69.10
2019-06-08T05:49:10.502Z,69.10
2019-06-08T05:51:41.846Z,69.20
2019-06-08T05:54:12.574Z,69.10
2019-06-08T05:56:43.867Z,69.40
2019-06-08T05:59:14.859Z,69.40
2019-06-08T06:01:46.728Z,69.00
2019-06-08T06:04:18.691Z,69.30
2019-06-08T06:06:50.894Z,69.50
2019-06-08T06:09:22.162Z,69.50
2019-06-08T06:11:53.353Z,69.20
2019-06-08T06:14:24.502Z,68.80
2019-06-08T06:16:55.900Z,68.30
2019-06-08T06:19:28.509Z,67.50
2019-06-08T06:22:00.470Z,66.90
2019-06-08T06:24:32.501Z,66.30
2019-06-08T06:27:04.467Z,66.00
2019-06-08T06:29:35.475Z,65.70
2019-06-08T06:32:06.651Z,65.30
2019-06-08T06:34:45.820Z,64.90
2019-06-08T06:37:19.787Z,64.80
2019-06-08T06:39:52.093Z,64.30
2019-06-08T06:42:25.039Z,63.50
2019-06-08T06:44:55.603Z,62.90
2019-06-08T06:47:26.447Z,62.50
2019-06-08T06:49:57.506Z,62.40
2019-06-08T06:52:29.308Z,62.50
2019-06-08T06:55:00.506Z,62.40
2019-06-08T06:57:31.368Z,61.80
2019-06-08T07:00:02.205Z,61.00
2019-06-08T07:02:34.500Z,60.40
2019-06-08T07:05:05.956Z,60.10
2019-06-08T07:07:36.950Z,59.50
2019-06-08T07:10:08.235Z,59.70
2019-06-08T07:12:39.228Z,59.60
2019-06-08T07:15:10.289Z,59.50
2019-06-08T07:17:41.197Z,59.10
2019-06-08T07:20:12.060Z,58.90
2019-06-08T07:22:43.013Z,58.60
2019-06-08T07:25:13.957Z,57.00
2019-06-08T07:27:44.833Z,57.10
2019-06-08T07:30:16.049Z,57.10
2019-06-08T07:32:48.138Z,56.80
2019-06-08T07:35:19.964Z,56.60
2019-06-08T07:37:53.684Z,56.20
2019-06-08T07:40:24.694Z,55.70
2019-06-08T07:42:56.709Z,55.70
2019-06-08T07:45:28.326Z,54.00
2019-06-08T07:48:04.059Z,54.10
2019-06-08T07:50:36.624Z,54.00
2019-06-08T07:53:07.695Z,53.30
2019-06-08T07:55:38.462Z,51.90
2019-06-08T07:58:09.586Z,49.70
2019-06-08T08:00:41.725Z,50.60
2019-06-08T08:03:14.137Z,50.50
2019-06-08T08:05:46.163Z,49.80
2019-06-08T08:08:18.923Z,49.60
2019-06-08T08:10:50.984Z,48.70
2019-06-08T08:13:24.322Z,49.40
2019-06-08T08:15:58.583Z,48.20
2019-06-08T08:18:29.765Z,49.20
2019-06-08T08:21:09.017Z,49.00
2019-06-08T08:23:38.183Z,48.10
2019-06-08T08:26:09.460Z,47.90
2019-06-08T08:28:41.197Z,47.80
2019-06-08T08:31:15.269Z,47.50
2019-06-08T08:33:46.034Z,45.70
2019-06-08T08:36:21.105Z,45.60
2019-06-08T08:38:51.853Z,44.60
2019-06-08T08:41:23.297Z,43.80
2019-06-08T08:43:58.391Z,43.00
2019-06-08T08:46:28.590Z,42.50
2019-06-08T08:49:09.082Z,42.50
2019-06-08T08:51:33.390Z,42.80
2019-06-08T08:54:05.532Z,42.30
2019-06-08T08:56:38.530Z,42.10
2019-06-08T08:59:10.827Z,41.60
2019-06-08T09:01:42.713Z,41.20
2019-06-08T09:04:14.386Z,41.00
2019-06-08T09:06:48.166Z,40.60
2019-06-08T09:09:21.696Z,39.50
2019-06-08T09:11:54.396Z,39.10
2019-06-08T09:14:27.951Z,39.00
2019-06-08T09:17:01.691Z,40.10
2019-06-08T09:19:32.348Z,40.80
2019-06-08T09:22:04.546Z,42.60
2019-06-08T09:24:38.776Z,43.00
2019-06-08T09:27:09.606Z,43.60
2019-06-08T09:29:42.490Z,42.90
2019-06-08T09:32:14.703Z,40.80
2019-06-08T09:34:48.354Z,40.60
2019-06-08T09:37:19.206Z,39.50
2019-06-08T09:39:50.962Z,40.70
2019-06-08T09:42:22.636Z,38.70
2019-06-08T09:44:55.506Z,39.90
2019-06-08T09:47:28.063Z,38.80
2019-06-08T09:50:02.501Z,38.10
2019-06-08T09:52:33.840Z,38.50
2019-06-08T09:55:06.926Z,38.40
2019-06-08T09:57:39.370Z,37.00
2019-06-08T10:00:17.898Z,37.10
2019-06-08T10:02:47.756Z,36.90
2019-06-08T10:05:19.603Z,36.20
2019-06-08T10:07:51.254Z,37.00
2019-06-08T10:12:54.515Z,36.40
2019-06-08T10:15:27.732Z,36.40
2019-06-08T10:18:01.024Z,36.70
2019-06-08T10:20:34.242Z,38.30
2019-06-08T10:23:24.207Z,36.60
2019-06-08T10:25:39.262Z,37.40
2019-06-08T10:28:15.911Z,38.10
2019-06-08T10:30:45.335Z,37.50
2019-06-08T10:33:18.493Z,37.50
2019-06-08T10:35:50.247Z,36.80
2019-06-08T10:38:22.058Z,35.70
2019-06-08T10:41:11.944Z,35.40
2019-06-08T10:43:38.521Z,35.40
2019-06-08T10:46:16.156Z,35.10
2019-06-08T10:48:43.399Z,34.30
2019-06-08T10:51:15.492Z,34.40
2019-06-08T10:53:52.098Z,34.10
2019-06-08T10:56:20.646Z,33.60
2019-06-08T10:58:52.482Z,33.90
2019-06-08T11:01:24.122Z,33.40
2019-06-08T11:03:58.052Z,33.10
2019-06-08T11:06:29.359Z,32.70
2019-06-08T11:09:04.275Z,31.90
2019-06-08T11:11:34.569Z,31.80
2019-06-08T11:14:10.264Z,32.10
2019-06-08T11:16:39.494Z,32.50
2019-06-08T11:19:13.953Z,32.60
2019-06-08T11:21:48.102Z,33.30
2019-06-08T11:24:24.948Z,31.90
2019-06-08T11:26:52.811Z,31.20
2019-06-08T11:29:24.515Z,31.90
2019-06-08T11:31:58.629Z,32.20
2019-06-08T11:34:29.566Z,30.50
2019-06-08T11:37:01.970Z,30.00
2019-06-08T11:39:35.080Z,31.00
2019-06-08T11:42:09.199Z,32.30
2019-06-08T11:44:40.298Z,33.40
2019-06-08T11:47:13.442Z,32.60
2019-06-08T11:49:47.956Z,31.90
2019-06-08T11:52:19.147Z,32.40
2019-06-08T11:54:50.309Z,32.40
2019-06-08T11:57:23.307Z,32.90
2019-06-08T11:59:58.358Z,33.10
2019-06-08T12:02:28.806Z,32.90
2019-06-08T12:05:01.682Z,34.40
2019-06-08T12:07:33.446Z,36.10
2019-06-08T12:10:06.390Z,36.50
2019-06-08T12:12:38.479Z,37.60
2019-06-08T12:15:11.954Z,38.10
2019-06-08T12:17:44.175Z,39.10
2019-06-08T12:20:24.340Z,40.80
2019-06-08T12:22:58.661Z,41.00
2019-06-08T12:25:37.683Z,42.20
2019-06-08T12:28:10.589Z,44.50
2019-06-08T12:30:42.799Z,48.20
2019-06-08T12:33:19.884Z,52.00
2019-06-08T12:35:50.988Z,54.50
2019-06-08T12:38:21.888Z,56.70
2019-06-08T12:40:53.459Z,58.40
2019-06-08T12:43:34.304Z,60.10
2019-06-08T12:46:05.078Z,62.40
2019-06-08T12:48:38.490Z,64.50
2019-06-08T12:51:12.078Z,64.60
2019-06-08T12:53:42.558Z,65.80
2019-06-08T12:56:14.739Z,66.10
2019-06-08T12:58:47.622Z,64.80
2019-06-08T13:01:18.920Z,65.40
2019-06-08T13:03:50.802Z,66.10
2019-06-08T13:06:22.586Z,66.00
2019-06-08T13:08:54.659Z,66.00
2019-06-08T13:11:25.467Z,63.80
2019-06-08T13:13:56.322Z,62.90
2019-06-08T13:16:28.380Z,63.00
2019-06-08T13:19:00.202Z,62.40
2019-06-08T13:21:35.029Z,61.00
2019-06-08T13:24:05.144Z,61.40
2019-06-08T13:26:35.939Z,58.70
2019-06-08T13:29:09.193Z,58.20
2019-06-08T13:31:39.382Z,56.60
2019-06-08T13:34:11.069Z,55.40
2019-06-08T13:36:43.595Z,54.10
2019-06-08T13:39:19.565Z,52.00
2019-06-08T13:41:59.878Z,52.30
2019-06-08T13:44:37.683Z,52.00
2019-06-08T13:47:12.235Z,52.30
2019-06-08T13:49:42.016Z,52.80
2019-06-08T13:52:13.786Z,53.30
2019-06-08T13:54:48.892Z,54.70
2019-06-08T14:02:34.576Z,52.60
2019-06-08T14:05:08.160Z,51.00
2019-06-08T14:07:39.682Z,50.30
2019-06-08T14:10:12.776Z,49.80
2019-06-08T14:12:44.225Z,48.20
2019-06-08T14:15:15.596Z,47.50
2019-06-08T14:17:48.167Z,47.60
2019-06-08T14:20:24.206Z,48.50
2019-06-08T14:22:55.962Z,46.50
2019-06-08T14:25:28.883Z,47.00
2019-06-08T14:28:00.340Z,46.00
2019-06-08T14:30:33.273Z,46.40
2019-06-08T14:33:08.223Z,47.80
2019-06-08T14:35:42.926Z,48.40
2019-06-08T14:38:25.537Z,50.20
2019-06-08T14:40:55.727Z,51.80
2019-06-08T14:43:29.979Z,53.50
2019-06-08T14:46:03.193Z,53.20
2019-06-08T14:54:34.676Z,54.50
2019-06-08T14:57:02.336Z,54.10
2019-06-08T14:59:33.117Z,54.40
2019-06-08T15:02:04.554Z,53.30
2019-06-08T15:04:37.542Z,53.60
2019-06-08T15:07:09.585Z,52.40
2019-06-08T15:09:41.476Z,53.10
2019-06-08T15:12:12.172Z,51.90
2019-06-08T15:14:42.934Z,51.50
2019-06-08T15:17:13.654Z,51.70
2019-06-08T15:19:47.543Z,52.30
2019-06-08T15:22:20.900Z,52.40
2019-06-08T15:27:25.090Z,52.90
2019-06-08T15:29:58.647Z,52.90
2019-06-08T15:32:35.010Z,53.30
2019-06-08T15:35:04.900Z,53.90
2019-06-08T15:37:38.087Z,54.00
2019-06-08T15:40:09.452Z,54.40
2019-06-08T15:42:41.038Z,54.10
2019-06-08T15:45:18.405Z,54.30
2019-06-08T15:48:13.099Z,54.40
2019-06-08T15:50:46.580Z,54.80
2019-06-08T15:56:43.287Z,55.20
2019-06-08T15:59:18.257Z,54.60
2019-06-08T16:01:49.042Z,54.70
2019-06-08T16:04:19.744Z,55.20
2019-06-08T16:06:50.596Z,55.30
2019-06-08T16:09:21.322Z,56.60
2019-06-08T16:11:52.116Z,56.40
2019-06-08T16:14:22.867Z,56.60
2019-06-08T16:16:53.658Z,56.50
2019-06-08T16:19:25.365Z,56.70
2019-06-08T16:21:56.249Z,56.70
2019-06-08T16:24:27.762Z,56.90
2019-06-08T16:26:58.677Z,56.90
2019-06-08T16:29:29.388Z,56.80
2019-06-08T16:32:00.754Z,56.80
2019-06-08T16:34:31.469Z,54.30
2019-06-08T16:37:02.298Z,54.10
2019-06-08T16:39:33.136Z,54.20
2019-06-08T16:42:03.934Z,54.50
2019-06-08T16:44:36.286Z,54.60
2019-06-08T16:47:07.348Z,54.60
2019-06-08T16:49:38.103Z,54.80
2019-06-08T16:52:08.859Z,54.00
2019-06-08T16:54:39.672Z,54.50
2019-06-08T16:57:11.211Z,54.20
2019-06-08T16:59:42.173Z,54.10
2019-06-08T17:02:16.579Z,54.10
2019-06-08T17:04:45.438Z,54.00
2019-06-08T17:07:16.247Z,54.40
2019-06-08T17:09:47.017Z,54.00
2019-06-08T17:12:17.790Z,54.20
2019-06-08T17:14:48.536Z,54.40
2019-06-08T17:17:19.598Z,54.70
2019-06-08T17:19:50.651Z,54.70
2019-06-08T17:22:21.584Z,55.20
2019-06-08T17:24:52.697Z,55.40
2019-06-08T17:27:27.006Z,55.70
2019-06-08T17:29:55.992Z,55.20
2019-06-08T17:32:26.868Z,55.30
2019-06-08T17:34:57.893Z,55.60
2019-06-08T17:37:28.698Z,55.90
2019-06-08T17:39:59.447Z,56.40
2019-06-08T17:42:30.295Z,56.30
2019-06-08T17:45:00.994Z,56.30
2019-06-08T17:47:32.166Z,56.40
2019-06-08T17:50:03.142Z,56.40
2019-06-08T17:52:34.655Z,56.60
2019-06-08T17:55:13.182Z,56.80
2019-06-08T17:57:52.819Z,57.00
2019-06-08T18:00:43.735Z,56.90
2019-06-08T18:03:41.006Z,56.90
2019-06-08T18:06:13.570Z,57.10
2019-06-08T18:09:01.463Z,57.20
2019-06-08T18:11:38.443Z,56.80
2019-06-08T18:14:08.728Z,56.70
2019-06-08T18:16:42.111Z,56.50
2019-06-08T18:19:28.454Z,56.40
2019-06-08T18:22:04.057Z,56.50
2019-06-08T18:24:32.243Z,56.30
2019-06-08T18:27:03.778Z,56.30
2019-06-08T18:29:35.064Z,55.90
2019-06-08T18:32:11.932Z,55.50
2019-06-08T18:34:43.349Z,55.20
2019-06-08T18:37:14.333Z,55.20
2019-06-08T18:39:45.975Z,55.10
2019-06-08T18:42:18.008Z,54.90
2019-06-08T18:44:48.964Z,54.70
2019-06-08T18:47:19.750Z,55.10
2019-06-08T18:49:50.588Z,55.20
2019-06-08T18:52:21.360Z,55.10
2019-06-08T18:54:52.816Z,55.10
2019-06-08T18:57:23.623Z,54.80
2019-06-08T18:59:54.350Z,55.20
2019-06-08T19:02:25.927Z,55.20
2019-06-08T19:04:57.711Z,55.40
2019-06-08T19:07:28.642Z,55.60
2019-06-08T19:10:01.245Z,55.70
2019-06-08T19:12:31.987Z,56.00
2019-06-08T19:15:03.079Z,56.10
2019-06-08T19:17:33.825Z,56.10
2019-06-08T19:20:04.930Z,56.20
2019-06-08T19:22:38.446Z,56.30
2019-06-08T19:25:08.259Z,56.40
2019-06-08T19:27:45.114Z,56.60
2019-06-08T19:30:11.636Z,56.70
2019-06-08T19:32:48.300Z,56.90
2019-06-08T19:35:18.392Z,57.60
2019-06-08T19:37:53.700Z,57.80
2019-06-08T19:40:27.037Z,58.20
2019-06-08T19:43:01.287Z,58.50
2019-06-08T19:45:30.099Z,58.90
2019-06-08T19:48:00.860Z,59.30
2019-06-08T19:50:38.325Z,59.70
2019-06-08T19:59:11.345Z,61.40
2019-06-08T20:01:59.829Z,61.90
2019-06-08T20:04:38.466Z,62.40
2019-06-08T20:12:38.461Z,62.80
2019-06-08T20:15:08.807Z,62.80
2019-06-08T20:17:52.570Z,63.10
2019-06-08T20:20:23.749Z,64.20
2019-06-08T20:22:58.523Z,63.40
2019-06-08T20:25:40.988Z,63.40
2019-06-08T20:28:12.162Z,63.90
2019-06-08T20:30:44.299Z,64.30
2019-06-08T20:33:15.449Z,64.60
2019-06-08T20:35:48.548Z,64.60
2019-06-08T20:38:31.513Z,64.60
2019-06-08T20:40:52.277Z,64.80
2019-06-08T20:43:23.413Z,64.50
2019-06-08T20:45:54.149Z,64.50
2019-06-08T20:48:27.357Z,64.80
2019-06-08T20:50:57.464Z,65.00
2019-06-08T20:53:28.349Z,65.10
2019-06-08T20:55:59.235Z,65.30
2019-06-08T20:58:30.092Z,65.30
2019-06-08T21:01:00.904Z,65.40
2019-06-08T21:03:32.467Z,65.40
2019-06-08T21:06:04.267Z,65.60
2019-06-08T21:08:37.271Z,65.60
2019-06-08T21:11:09.222Z,65.30
2019-06-08T21:13:40.328Z,65.20
2019-06-08T21:16:11.181Z,65.30
2019-06-08T21:18:42.048Z,65.40
2019-06-08T21:21:12.855Z,65.60
2019-06-08T21:23:44.840Z,65.60
2019-06-08T21:26:17.895Z,65.40
2019-06-08T21:28:51.273Z,65.30
2019-06-08T21:31:20.964Z,65.40
2019-06-08T21:33:52.656Z,65.30
2019-06-08T21:36:24.268Z,66.00
2019-06-08T21:38:59.876Z,65.30
2019-06-08T21:41:28.011Z,65.50
2019-06-08T21:44:01.885Z,65.50
2019-06-08T21:46:31.308Z,65.60
2019-06-08T21:49:02.169Z,65.50
2019-06-08T21:51:32.957Z,65.40
2019-06-08T21:54:03.717Z,65.40
2019-06-08T21:56:36.926Z,65.40
2019-06-08T21:59:07.890Z,65.20
2019-06-08T22:01:40.167Z,65.40
2019-06-08T22:04:11.182Z,65.30
2019-06-08T22:06:41.932Z,65.60
2019-06-08T22:09:12.839Z,65.70
2019-06-08T22:11:43.685Z,65.90
2019-06-08T22:14:14.492Z,66.00
2019-06-08T22:16:47.400Z,66.00
2019-06-08T22:19:18.487Z,66.00
2019-06-08T22:21:49.406Z,66.10
2019-06-08T22:24:20.209Z,66.10
2019-06-08T22:26:51.052Z,66.00
2019-06-08T22:29:23.163Z,66.10
2019-06-08T22:31:53.917Z,66.00
2019-06-08T22:34:24.697Z,66.10
2019-06-08T22:36:58.211Z,66.20
2019-06-08T22:39:28.201Z,66.10
2019-06-08T22:42:01.186Z,66.10
2019-06-08T22:44:31.506Z,66.20
2019-06-08T22:47:03.602Z,66.30
2019-06-08T22:49:34.876Z,66.30
2019-06-08T22:52:08.215Z,66.40
2019-06-08T22:54:38.515Z,66.60
2019-06-08T22:57:09.326Z,66.70
2019-06-08T22:59:40.121Z,66.80
2019-06-08T23:02:10.876Z,66.70
2019-06-08T23:04:41.664Z,66.50
2019-06-08T23:07:25.648Z,66.50
2019-06-08T23:09:44.847Z,66.30
2019-06-08T23:12:18.055Z,66.40
2019-06-08T23:14:48.128Z,66.40
2019-06-08T23:17:18.929Z,66.50
2019-06-08T23:19:49.737Z,66.50
2019-06-08T23:22:20.471Z,66.40
2019-06-08T23:24:51.298Z,66.10
2019-06-08T23:27:22.070Z,65.90
2019-06-08T23:29:54.101Z,66.10
2019-06-08T23:32:27.508Z,66.50
2019-06-08T23:34:58.652Z,66.70
2019-06-08T23:37:29.575Z,66.80
2019-06-08T23:40:02.143Z,66.80
2019-06-08T23:42:33.661Z,66.70
2019-06-08T23:45:08.613Z,66.70
2019-06-08T23:47:38.530Z,66.70
2019-06-08T23:50:11.620Z,66.40
2019-06-08T23:52:42.689Z,66.30
2019-06-08T23:55:13.566Z,66.30
2019-06-08T23:57:44.288Z,66.10
